Terminal Aerodrome Forecast
Issued by NWS Columbia, SC

Home | Current Version | Previous Version | Text Only | Print | Product List | Glossary On
Versions: 1 2 3 4 5 6 7 8 9 10 11 12 13 14 15 16 17 18 19 20 21 22 23 24 25 26 27 28 29 30 31 32 33 34 35 36 37 38 39 40 41 42 43 44 45 46 47 48 49 50
053
FTUS42 KCAE 061810 AAA
TAFAGS
TAF AMD
KAGS 061810Z 0618/0718 VRB05KT 2SM BR OVC003 WS020/25035KT
     FM062300 VRB04KT 2SM BR OVC003
     FM070400 VRB03KT 1/2SM FG VV003
     FM071600 VRB04KT 4SM BR OVC008
     FM071700 VRB04KT P6SM OVC015=

USA.gov is the U.S. government's official web portal to all federal, state and local government web resources and services.